Lowlands Sky — 3FJW9 — position and weather

sailwx.info

Track history (hours):
 
Tides and Currents Weather Stations Pressure Air Temp Water Temp Dewpoint Dewpoint Depression Visibility Wind Speed Wind Dir Waves Ship Positions

Lowlands Sky

Last reported at 2017-Apr-28 21:31 UTC. Time now 2017-Apr-29 21:31 UTC.
Position N 01°14' E 104°03'.

Length 177 m; draft 10.2 m.

Type: Cargo ship. MMSI: 370830000.

Date/timePositionNaut miles runAvg speedWind from/ knotsBaromVisibWave heightAir tempDewpointWater temp
2017-Apr-28 21:31N 01°14' E 104°03'113.5
2017-Apr-28 21:27N 01°14' E 104°02'613.2
2017-Apr-28 21:00N 01°13' E 103°56'714.1
2017-Apr-28 20:30N 01°10' E 103°50'714.7
2017-Apr-28 20:00N 01°06' E 103°44'612.5
2017-Apr-28 19:30N 01°03' E 103°38'713.6
2017-Apr-28 19:00N 01°06' E 103°32'713.8
2017-Apr-28 18:30N 01°10' E 103°26'813.9
2017-Apr-28 17:57N 01°15' E 103°21'6113.4
2017-Apr-28 13:26N 01°47' E 102°29'  
Track history (hours):
 
Tides and Currents Weather Stations Pressure Air Temp Water Temp Dewpoint Dewpoint Depression Visibility Wind Speed Wind Dir Waves Ship Positions

Lowlands Sky

Last reported at 2017-Apr-28 21:31 UTC. Time now 2017-Apr-29 21:31 UTC.
Position N 01°14' E 104°03'.

Length 177 m; draft 10.2 m.

Type: Cargo ship. MMSI: 370830000.

Date/timePositionNaut miles runAvg speedWind from/ knotsBaromVisibWave heightAir tempDewpointWater temp
2017-Apr-28 21:31N 01°14' E 104°03'113.5
2017-Apr-28 21:27N 01°14' E 104°02'613.2
2017-Apr-28 21:00N 01°13' E 103°56'714.1
2017-Apr-28 20:30N 01°10' E 103°50'714.7
2017-Apr-28 20:00N 01°06' E 103°44'612.5
2017-Apr-28 19:30N 01°03' E 103°38'713.6
2017-Apr-28 19:00N 01°06' E 103°32'713.8
2017-Apr-28 18:30N 01°10' E 103°26'813.9
2017-Apr-28 17:57N 01°15' E 103°21'6113.4
2017-Apr-28 13:26N 01°47' E 102°29'  

Dump ship's entire track history